Flight Track Log - Related Links

Times and Time Zones

All times are in EDT time to prevent confusion due to time zone crossing. See the CHQ5079 flight status page for this flight to view local times or setup timezone preferences in your user account.

Time Position Orientation Groundspeed Altitude Reporting Facility
EDT Latitude Longitude Course Direction KTS MPH feet Rate Location/Type
Thu 12:11:14 AM 42.0000 -87.9333 312° West 160 184 1,500  Level Chicago TRACON
Thu 12:12:14 AM 42.0333 -87.9833 312° West 222 255 3,100 2,445 Climbing Chicago TRACON
Thu 12:14:45 AM 42.0344 -88.2125 270° West 246 283 10,100 2,575 Climbing Chicago Center
Thu 12:15:46 AM 42.0047 -88.2983 245° Southwest 258 297 12,200 1,636 Climbing Chicago Center
Thu 12:16:46 AM 41.9942 -88.3997 262° West 287 330 13,400 992 Climbing Chicago Center
Thu 12:17:47 AM 41.9931 -88.5167 269° West 314 361 14,200 744 Climbing Chicago Center
Thu 12:18:47 AM 41.9903 -88.6469 268° West 339 390 14,900 744 Climbing Chicago Center
Thu 12:19:48 AM 41.9878 -88.7831 269° West 360 414 15,700 545 Climbing Chicago Center
Thu 12:20:48 AM 41.9839 -88.9167 268° West 363 418 16,000 149 Climbing Chicago Center
Thu 12:21:49 AM 41.9808 -89.0539 268° West 366 421 16,000  Level Chicago Center
Thu 12:22:49 AM 41.9772 -89.1908 268° West 370 426 16,000  Level Chicago Center
Thu 12:23:50 AM 41.9736 -89.3539 268° West 365 420 16,000  Level Chicago Center
Thu 12:24:50 AM 41.9694 -89.4858 268° West 358 412 16,000  Level Chicago Center
Thu 12:25:51 AM 41.9658 -89.6186 268° West 359 413 16,000  Level Chicago Center
Thu 12:26:51 AM 41.9619 -89.7511 268° West 358 412 16,000  Level Chicago Center
Thu 12:27:52 AM 41.9578 -89.8825 268° West 356 410 16,000 -50 Level Chicago Center
Thu 12:28:52 AM 41.9553 -90.0194 269° West 358 412 15,900 -50 Descending Chicago Center
Thu 12:29:53 AM 41.9500 -90.1503 267° West 356 410 15,900  Level Chicago Center
Thu 12:30:53 AM 41.9461 -90.2792 268° West 349 402 15,900  Level Chicago Center
Thu 12:31:54 AM 41.9417 -90.3958 267° West 320 368 15,900 -248 Level Chicago Center
Thu 12:32:54 AM 41.9369 -90.5081 267° West 307 353 15,400 -545 Descending Chicago Center
Thu 12:33:55 AM 41.9336 -90.6231 268° West 310 357 14,800 -545 Descending Chicago Center
Thu 12:34:55 AM 41.9272 -90.7422 266° West 318 366 14,300 -1,140 Descending Chicago Center
Thu 12:35:56 AM 41.9231 -90.8469 267° West 290 334 12,500 -1,636 Descending Chicago Center
Thu 12:36:56 AM 41.9183 -90.9506 267° West 281 323 11,000 -1,150 Descending Chicago Center
Thu 12:37:56 AM 41.9147 -91.0503 267° West 272 313 10,200 -1,339 Descending Chicago Center
Thu 12:38:57 AM 41.9108 -91.1464 267° West 262 302 8,300 -1,934 Descending Chicago Center
Thu 12:39:57 AM 41.9044 -91.2403 265° West 256 295 6,300 -1,934 Descending Chicago Center
Thu 12:40:58 AM 41.8900 -91.3342 258° West 258 297 4,400 -1,190 Descending Chicago Center
Thu 12:41:58 AM 41.8792 -91.4414 262° West 249 287 3,900 -496 Descending Chicago Center
Thu 12:42:59 AM 41.8811 -91.5172 272° West 220 253 3,400 -694 Descending Chicago Center
Thu 12:43:59 AM 41.8847 -91.5917 274° West 207 238 2,500 -950 Descending Chicago Center
Thu 12:44:59 AM 41.8828 -91.6511 268° West 187 215 1,500 -793 Descending Chicago Center
Thu 12:46:00 AM 41.8844 -91.7092 272° West 166 191 900 -590 Descending Chicago Center

Login

Don't have an account? Register now (free) for customized features, flight alerts, and more!